createdAt,value
2017-04-16T00:00:17.538Z,7.95
2017-04-16T00:01:15.437Z,7.94
2017-04-16T00:02:13.362Z,8.03
2017-04-16T00:03:11.276Z,7.40
2017-04-16T00:04:09.193Z,7.34
2017-04-16T00:05:07.171Z,7.73
2017-04-16T00:06:05.026Z,7.25
2017-04-16T00:07:02.837Z,7.38
2017-04-16T00:08:00.651Z,7.47
2017-04-16T00:08:58.478Z,7.42
2017-04-16T00:09:56.493Z,7.52
2017-04-16T00:10:55.654Z,7.87
2017-04-16T00:11:53.595Z,8.10
2017-04-16T00:12:51.522Z,7.95
2017-04-16T00:13:49.656Z,7.89
2017-04-16T00:14:47.827Z,8.02
2017-04-16T00:15:45.845Z,8.17
2017-04-16T00:16:44.812Z,8.09
2017-04-16T00:17:43.031Z,8.00
2017-04-16T00:18:40.920Z,7.47
2017-04-16T00:19:39.421Z,7.69
2017-04-16T00:20:37.520Z,7.84
2017-04-16T00:21:36.092Z,8.13
2017-04-16T00:22:33.935Z,8.19
2017-04-16T00:23:32.361Z,8.13
2017-04-16T00:24:30.241Z,8.09
2017-04-16T00:25:28.119Z,7.93
2017-04-16T00:26:26.004Z,8.01
2017-04-16T00:27:24.347Z,8.11
2017-04-16T00:28:22.443Z,7.99
2017-04-16T00:29:20.285Z,8.07
2017-04-16T00:30:18.216Z,7.63
2017-04-16T00:31:16.100Z,7.54
2017-04-16T00:32:14.021Z,7.44
2017-04-16T00:33:11.947Z,7.53
2017-04-16T00:34:09.833Z,7.91
2017-04-16T00:35:07.721Z,7.85
2017-04-16T00:36:05.631Z,7.64
2017-04-16T00:37:03.677Z,6.96
2017-04-16T00:38:01.743Z,7.20
2017-04-16T00:39:00.504Z,7.79
2017-04-16T00:39:58.464Z,7.84
2017-04-16T00:40:57.033Z,7.80
2017-04-16T00:41:55.004Z,7.82
2017-04-16T00:42:53.623Z,7.72
2017-04-16T00:43:51.549Z,7.67
2017-04-16T00:44:50.819Z,7.76
2017-04-16T00:45:48.709Z,7.36
2017-04-16T00:46:46.587Z,7.20
2017-04-16T00:47:44.486Z,7.26
2017-04-16T00:48:42.441Z,6.99
2017-04-16T00:49:40.389Z,6.90
2017-04-16T00:50:38.300Z,7.09
2017-04-16T00:51:36.177Z,7.04
2017-04-16T00:52:34.081Z,6.63
2017-04-16T00:53:32.306Z,6.57
2017-04-16T00:54:30.145Z,6.64
2017-04-16T00:55:28.016Z,6.63
2017-04-16T00:56:25.878Z,6.81
2017-04-16T00:57:23.867Z,7.23
2017-04-16T00:58:21.754Z,7.47
2017-04-16T00:59:20.686Z,7.67
2017-04-16T01:00:19.680Z,7.69
2017-04-16T01:03:29.378Z,7.50
2017-04-16T01:04:27.254Z,7.52
2017-04-16T01:05:25.150Z,7.71
2017-04-16T01:06:23.219Z,7.94
2017-04-16T01:07:21.179Z,7.65
2017-04-16T01:08:19.091Z,7.82
2017-04-16T01:09:17.029Z,7.57
2017-04-16T01:10:14.956Z,7.67
2017-04-16T01:11:12.871Z,7.51
2017-04-16T01:12:10.836Z,7.40
2017-04-16T01:13:08.672Z,7.52
2017-04-16T01:14:06.485Z,7.55
2017-04-16T01:15:04.356Z,7.47
2017-04-16T01:16:02.179Z,7.21
2017-04-16T01:17:00.106Z,7.34
2017-04-16T01:17:57.972Z,7.57
2017-04-16T01:18:55.842Z,7.49
2017-04-16T01:19:53.723Z,7.08
2017-04-16T01:20:51.694Z,7.08
2017-04-16T01:21:49.719Z,7.15
2017-04-16T01:22:47.644Z,6.96
2017-04-16T01:23:45.735Z,7.30
2017-04-16T01:24:43.777Z,7.34
2017-04-16T01:25:41.659Z,7.46
2017-04-16T01:26:39.521Z,6.82
2017-04-16T01:27:37.464Z,7.21
2017-04-16T01:28:35.386Z,7.69
2017-04-16T01:29:33.328Z,7.80
2017-04-16T01:30:31.208Z,7.89
2017-04-16T01:31:30.434Z,7.63
2017-04-16T01:32:28.338Z,7.18
2017-04-16T01:33:26.227Z,7.11
2017-04-16T01:34:24.168Z,7.44
2017-04-16T01:35:22.037Z,6.73
2017-04-16T01:36:19.856Z,7.23
2017-04-16T01:37:17.730Z,7.22
2017-04-16T01:38:15.641Z,6.81
2017-04-16T01:39:14.259Z,6.84
2017-04-16T01:40:12.196Z,6.83
2017-04-16T01:41:10.564Z,6.76
2017-04-16T01:42:08.452Z,6.78
2017-04-16T01:43:06.359Z,6.72
2017-04-16T01:44:04.232Z,6.81
2017-04-16T01:45:02.186Z,6.91
2017-04-16T01:46:00.455Z,6.98
2017-04-16T01:46:58.348Z,6.73
2017-04-16T01:47:56.278Z,6.87
2017-04-16T01:48:54.166Z,6.82
2017-04-16T01:49:52.334Z,7.30
2017-04-16T01:50:50.239Z,7.35
2017-04-16T01:51:48.143Z,7.00
2017-04-16T01:52:45.976Z,6.88
2017-04-16T01:53:43.815Z,7.13
2017-04-16T01:54:41.721Z,7.15
2017-04-16T01:55:39.550Z,7.00
2017-04-16T01:56:37.359Z,7.03
2017-04-16T01:57:35.240Z,6.77
2017-04-16T01:58:33.491Z,6.84
2017-04-16T01:59:31.539Z,6.76
2017-04-16T02:00:29.424Z,6.74
2017-04-16T02:01:27.316Z,7.08
2017-04-16T02:02:25.232Z,6.77
2017-04-16T02:03:23.131Z,6.71
2017-04-16T02:04:21.052Z,6.91
2017-04-16T02:05:19.008Z,7.16
2017-04-16T02:06:16.869Z,7.05
2017-04-16T02:07:17.854Z,7.06
2017-04-16T02:08:15.713Z,7.23
2017-04-16T02:09:13.695Z,7.51
2017-04-16T02:10:11.598Z,7.75
2017-04-16T02:11:09.484Z,7.55
2017-04-16T02:12:07.383Z,7.43
2017-04-16T02:13:05.213Z,7.43
2017-04-16T02:14:03.044Z,7.70
2017-04-16T02:15:01.020Z,7.57
2017-04-16T02:15:58.897Z,7.28
2017-04-16T02:16:56.764Z,7.23
2017-04-16T02:17:54.652Z,7.46
2017-04-16T02:18:52.665Z,7.21
2017-04-16T02:19:50.639Z,7.11
2017-04-16T02:20:48.523Z,7.29
2017-04-16T02:21:46.421Z,7.58
2017-04-16T02:22:44.244Z,7.20
2017-04-16T02:23:42.223Z,7.50
2017-04-16T02:24:40.085Z,7.43
2017-04-16T02:25:38.176Z,7.46
2017-04-16T02:26:36.037Z,7.69
2017-04-16T02:27:33.900Z,7.90
2017-04-16T02:28:31.737Z,7.97
2017-04-16T02:29:29.692Z,7.61
2017-04-16T02:30:27.512Z,7.21
2017-04-16T02:31:25.383Z,7.40
2017-04-16T02:32:23.247Z,7.49
2017-04-16T02:33:21.063Z,7.06
2017-04-16T02:34:18.951Z,7.14
2017-04-16T02:35:16.902Z,7.49
2017-04-16T02:36:14.750Z,7.75
2017-04-16T02:37:12.642Z,7.45
2017-04-16T02:38:10.508Z,7.62
2017-04-16T02:39:08.424Z,7.62
2017-04-16T02:40:06.348Z,7.62
2017-04-16T02:41:04.224Z,7.72
2017-04-16T02:42:02.128Z,7.60
2017-04-16T02:42:59.973Z,7.33
2017-04-16T02:43:57.866Z,7.26
2017-04-16T02:44:55.762Z,7.07
2017-04-16T02:45:53.652Z,7.17
2017-04-16T02:46:51.569Z,7.03
2017-04-16T02:47:49.424Z,7.25
2017-04-16T02:48:47.256Z,7.40
2017-04-16T02:49:45.132Z,7.28
2017-04-16T02:50:43.240Z,7.55
2017-04-16T02:51:41.132Z,6.99
2017-04-16T02:52:38.996Z,7.06
2017-04-16T02:53:36.852Z,7.12
2017-04-16T02:54:34.739Z,7.10
2017-04-16T02:55:32.613Z,7.09
2017-04-16T02:56:30.486Z,7.08
2017-04-16T02:57:28.491Z,6.98
2017-04-16T02:58:26.337Z,7.46
2017-04-16T02:59:24.192Z,7.44
2017-04-16T03:00:22.105Z,7.01
2017-04-16T03:01:20.154Z,6.99
2017-04-16T03:02:18.213Z,7.27
2017-04-16T03:03:16.143Z,7.20
2017-04-16T03:04:13.983Z,7.51
2017-04-16T03:05:12.107Z,7.63
2017-04-16T03:06:09.964Z,7.32
2017-04-16T03:07:07.859Z,7.11
2017-04-16T03:08:05.773Z,7.27
2017-04-16T03:09:03.860Z,6.91
2017-04-16T03:10:01.689Z,6.91
2017-04-16T03:10:59.597Z,7.32
2017-04-16T03:11:57.413Z,7.27
2017-04-16T03:12:55.348Z,7.13
2017-04-16T03:13:53.189Z,6.80
2017-04-16T03:14:51.075Z,6.90
2017-04-16T03:15:48.994Z,7.46
2017-04-16T03:16:46.837Z,7.61
2017-04-16T03:17:44.659Z,7.50
2017-04-16T03:18:42.480Z,7.28
2017-04-16T03:19:40.423Z,7.17
2017-04-16T03:20:38.314Z,7.01
2017-04-16T03:21:36.184Z,7.15
2017-04-16T03:22:34.011Z,7.02
2017-04-16T03:23:31.853Z,6.77
2017-04-16T03:24:29.757Z,6.62
2017-04-16T03:25:27.640Z,7.10
2017-04-16T03:26:25.545Z,6.96
2017-04-16T03:27:23.485Z,6.58
2017-04-16T03:28:21.362Z,6.70
2017-04-16T03:29:19.204Z,6.79
2017-04-16T03:30:17.075Z,7.13
2017-04-16T03:31:14.896Z,6.97
2017-04-16T03:32:12.768Z,6.99
2017-04-16T03:33:10.600Z,6.97
2017-04-16T03:34:08.512Z,7.21
2017-04-16T03:35:06.424Z,7.43
2017-04-16T03:36:04.997Z,7.18
2017-04-16T03:37:02.852Z,6.95
2017-04-16T03:38:00.731Z,6.74
2017-04-16T03:38:58.637Z,6.79
2017-04-16T03:39:56.545Z,6.98
2017-04-16T03:40:54.475Z,6.62
2017-04-16T03:41:52.342Z,7.28
2017-04-16T03:42:50.235Z,7.19
2017-04-16T03:43:48.106Z,6.64
2017-04-16T03:44:45.983Z,6.97
2017-04-16T03:45:43.858Z,6.79
2017-04-16T03:46:41.771Z,6.90
2017-04-16T03:47:39.664Z,6.93
2017-04-16T03:48:37.532Z,7.23
2017-04-16T03:49:35.419Z,6.89
2017-04-16T03:50:33.289Z,7.08
2017-04-16T03:51:31.179Z,7.33
2017-04-16T03:52:29.059Z,6.94
2017-04-16T03:53:26.972Z,6.79
2017-04-16T03:54:25.202Z,7.01
2017-04-16T03:55:23.251Z,6.99
2017-04-16T03:56:21.147Z,6.65
2017-04-16T03:57:19.023Z,6.56
2017-04-16T03:58:16.916Z,6.44
2017-04-16T03:59:14.817Z,6.20
2017-04-16T04:00:12.726Z,6.65
2017-04-16T04:01:10.596Z,6.91
2017-04-16T04:02:08.481Z,6.43
2017-04-16T04:03:06.348Z,6.16
2017-04-16T04:04:04.242Z,6.49
2017-04-16T04:05:02.051Z,6.22
2017-04-16T04:05:59.996Z,6.58
2017-04-16T04:06:57.880Z,6.08
2017-04-16T04:07:55.869Z,6.71
2017-04-16T04:08:53.855Z,6.74
2017-04-16T04:09:51.841Z,6.82
2017-04-16T04:10:49.741Z,6.61
2017-04-16T04:11:47.698Z,5.92
2017-04-16T04:12:45.618Z,5.83
2017-04-16T04:13:43.447Z,5.94
2017-04-16T04:14:41.433Z,6.13
2017-04-16T04:15:39.505Z,6.21
2017-04-16T04:16:37.387Z,5.88
2017-04-16T04:17:35.301Z,5.56
2017-04-16T04:18:33.579Z,5.83
2017-04-16T04:19:31.460Z,6.53
2017-04-16T04:20:29.451Z,6.31
2017-04-16T04:21:27.754Z,6.07
2017-04-16T04:22:25.644Z,6.19
2017-04-16T04:23:23.536Z,6.05
2017-04-16T04:24:21.465Z,5.84
2017-04-16T04:25:19.281Z,5.60
2017-04-16T04:26:17.188Z,5.84
2017-04-16T04:27:15.109Z,5.78
2017-04-16T04:28:12.943Z,6.12
2017-04-16T04:29:10.852Z,6.30
2017-04-16T04:30:08.720Z,6.69
2017-04-16T04:31:06.632Z,6.49
2017-04-16T04:32:04.472Z,6.16
2017-04-16T04:33:02.317Z,6.16
2017-04-16T04:34:00.154Z,6.19
2017-04-16T04:34:58.037Z,6.51
2017-04-16T04:35:55.942Z,6.74
2017-04-16T04:36:53.845Z,6.48
2017-04-16T04:37:51.725Z,6.86
2017-04-16T04:38:49.647Z,7.18
2017-04-16T04:39:47.568Z,7.27
2017-04-16T04:40:45.465Z,6.67
2017-04-16T04:41:43.319Z,6.40
2017-04-16T04:42:41.257Z,6.60
2017-04-16T04:43:39.090Z,7.03
2017-04-16T04:44:36.968Z,6.80
2017-04-16T04:45:34.810Z,6.79
2017-04-16T04:46:32.721Z,6.45
2017-04-16T04:47:30.826Z,6.62
2017-04-16T04:48:28.732Z,6.11
2017-04-16T04:49:26.558Z,6.61
2017-04-16T04:50:24.645Z,7.13
2017-04-16T04:51:22.472Z,7.16
2017-04-16T04:52:20.412Z,6.74
2017-04-16T04:53:18.364Z,7.03
2017-04-16T04:54:16.187Z,7.15
2017-04-16T04:55:14.244Z,6.98
2017-04-16T04:56:12.424Z,7.05
2017-04-16T04:57:10.324Z,7.25
2017-04-16T04:58:08.240Z,7.43
2017-04-16T04:59:06.185Z,7.26
2017-04-16T05:00:04.135Z,6.65
2017-04-16T05:01:02.120Z,6.58
2017-04-16T05:02:00.011Z,6.57
2017-04-16T05:02:57.922Z,6.73
2017-04-16T05:03:55.787Z,7.34
2017-04-16T05:04:53.604Z,7.53
2017-04-16T05:05:51.500Z,7.49
2017-04-16T05:06:49.407Z,7.23
2017-04-16T05:07:47.292Z,7.14
2017-04-16T05:08:45.184Z,7.11
2017-04-16T05:09:43.124Z,6.71
2017-04-16T05:10:41.351Z,6.58
2017-04-16T05:11:39.256Z,6.57
2017-04-16T05:12:37.049Z,6.88
2017-04-16T05:13:34.952Z,7.09
2017-04-16T05:14:32.867Z,7.26
2017-04-16T05:15:30.715Z,7.48
2017-04-16T05:16:28.647Z,7.40
2017-04-16T05:17:26.508Z,7.11
2017-04-16T05:18:24.391Z,7.07
2017-04-16T05:19:22.237Z,6.93
2017-04-16T05:20:20.100Z,7.28
2017-04-16T05:21:18.030Z,7.48
2017-04-16T05:22:15.893Z,7.38
2017-04-16T05:23:13.804Z,7.42
2017-04-16T05:24:11.639Z,7.29
2017-04-16T05:25:09.512Z,7.46
2017-04-16T05:26:07.353Z,7.50
2017-04-16T05:27:05.253Z,7.63
2017-04-16T05:28:03.130Z,7.44
2017-04-16T05:29:01.269Z,7.03
2017-04-16T05:29:59.128Z,6.93
2017-04-16T05:30:57.085Z,6.85
2017-04-16T05:31:55.001Z,6.87
2017-04-16T05:32:52.900Z,7.26
2017-04-16T05:33:50.724Z,7.51
2017-04-16T05:34:48.636Z,7.09
2017-04-16T05:35:46.487Z,7.15
2017-04-16T05:36:44.360Z,7.22
2017-04-16T05:37:42.316Z,7.14
2017-04-16T05:38:40.381Z,7.24
2017-04-16T05:39:38.249Z,7.12
2017-04-16T05:40:36.095Z,6.99
2017-04-16T05:41:33.954Z,7.44
2017-04-16T05:42:31.808Z,7.13
2017-04-16T05:43:29.708Z,7.23
2017-04-16T05:44:27.594Z,7.48
2017-04-16T05:45:25.452Z,7.26
2017-04-16T05:46:23.515Z,7.09
2017-04-16T05:47:21.380Z,7.39
2017-04-16T05:48:19.276Z,7.34
2017-04-16T05:49:17.187Z,7.62
2017-04-16T05:50:15.061Z,7.59
2017-04-16T05:51:12.892Z,7.41
2017-04-16T05:52:10.772Z,7.60
2017-04-16T05:53:08.654Z,7.56
2017-04-16T05:54:06.593Z,7.32
2017-04-16T05:55:04.483Z,7.53
2017-04-16T05:56:02.357Z,7.44
2017-04-16T05:57:00.266Z,7.56
2017-04-16T05:57:58.229Z,7.75
2017-04-16T05:58:56.128Z,7.86
2017-04-16T05:59:53.974Z,7.85
2017-04-16T06:00:51.828Z,7.62
2017-04-16T06:01:49.729Z,7.66
2017-04-16T06:02:47.604Z,7.32
2017-04-16T06:03:45.589Z,7.20
2017-04-16T06:04:43.418Z,7.42
2017-04-16T06:05:41.297Z,7.41
2017-04-16T06:06:39.125Z,7.59
2017-04-16T06:07:36.964Z,7.78
2017-04-16T06:08:34.821Z,7.82
2017-04-16T06:09:32.756Z,7.77
2017-04-16T06:10:30.631Z,7.70
2017-04-16T06:11:28.524Z,7.69
2017-04-16T06:12:26.423Z,7.79
2017-04-16T06:13:24.280Z,7.76
2017-04-16T06:14:22.164Z,7.62
2017-04-16T06:15:20.096Z,7.62
2017-04-16T06:16:17.991Z,7.79
2017-04-16T06:17:16.061Z,7.98
2017-04-16T06:18:13.941Z,8.01
2017-04-16T06:19:11.828Z,8.02
2017-04-16T06:20:09.728Z,8.07
2017-04-16T06:21:07.616Z,7.82
2017-04-16T06:22:05.543Z,7.79
2017-04-16T06:23:03.660Z,7.61
2017-04-16T06:24:01.570Z,7.88
2017-04-16T06:24:59.531Z,7.95
2017-04-16T06:25:57.416Z,8.08
2017-04-16T06:26:55.356Z,7.99
2017-04-16T06:27:53.308Z,8.09
2017-04-16T06:28:51.206Z,8.11
2017-04-16T06:29:49.078Z,7.94
2017-04-16T06:30:47.353Z,8.02
2017-04-16T06:31:45.252Z,8.12
2017-04-16T06:32:43.116Z,7.90
2017-04-16T06:33:41.033Z,7.98
2017-04-16T06:34:38.902Z,7.93
2017-04-16T06:35:36.780Z,8.06
2017-04-16T06:36:34.641Z,8.05
2017-04-16T06:37:32.544Z,7.91
2017-04-16T06:38:31.361Z,8.15
2017-04-16T06:39:29.194Z,8.24
2017-04-16T06:40:27.047Z,8.21
2017-04-16T06:41:24.883Z,7.95
2017-04-16T06:42:22.727Z,8.01
2017-04-16T06:43:20.573Z,8.07
2017-04-16T06:44:18.431Z,7.96
2017-04-16T06:45:16.266Z,8.09
2017-04-16T06:46:14.105Z,8.27
2017-04-16T06:47:11.925Z,8.17
2017-04-16T06:48:09.831Z,8.18
2017-04-16T06:49:07.696Z,8.10
2017-04-16T06:50:05.531Z,8.05
2017-04-16T06:51:03.459Z,8.08
2017-04-16T06:52:01.331Z,8.24
2017-04-16T06:52:59.290Z,8.20
2017-04-16T06:53:57.140Z,8.16
2017-04-16T06:54:54.972Z,8.29
2017-04-16T06:55:52.916Z,8.45
2017-04-16T06:56:50.756Z,8.23
2017-04-16T06:57:48.631Z,8.42
2017-04-16T06:58:46.484Z,8.27
2017-04-16T06:59:44.440Z,8.28
2017-04-16T07:00:42.325Z,8.35
2017-04-16T07:01:40.183Z,8.31
2017-04-16T07:02:38.032Z,8.46
2017-04-16T07:03:38.765Z,8.38
2017-04-16T07:04:36.664Z,8.33
2017-04-16T07:05:35.308Z,8.46
2017-04-16T07:06:33.141Z,8.49
2017-04-16T07:07:30.996Z,8.53
2017-04-16T07:08:28.901Z,8.52
2017-04-16T07:09:26.701Z,8.42
2017-04-16T07:10:24.610Z,8.57
2017-04-16T07:11:22.439Z,8.63
2017-04-16T07:12:20.454Z,8.76
2017-04-16T07:13:18.302Z,8.86
2017-04-16T07:14:16.117Z,8.84
2017-04-16T07:15:14.008Z,8.84
2017-04-16T07:16:11.840Z,9.00
2017-04-16T07:17:09.832Z,9.03
2017-04-16T07:18:07.723Z,9.10
2017-04-16T07:19:05.550Z,8.84
2017-04-16T07:20:03.437Z,9.06
2017-04-16T07:21:01.296Z,9.28
2017-04-16T07:21:59.186Z,9.31
2017-04-16T07:22:57.101Z,9.26
2017-04-16T07:23:54.964Z,9.22
2017-04-16T07:24:52.797Z,9.09
2017-04-16T07:25:50.725Z,9.14
2017-04-16T07:26:48.566Z,9.28
2017-04-16T07:27:46.413Z,9.22
2017-04-16T07:28:46.475Z,9.31
2017-04-16T07:29:46.448Z,9.24
2017-04-16T07:30:49.076Z,9.30
2017-04-16T07:31:51.739Z,9.27
2017-04-16T07:32:51.706Z,9.44
2017-04-16T07:33:49.661Z,9.48
2017-04-16T07:34:47.589Z,9.31
2017-04-16T07:35:45.490Z,9.36
2017-04-16T07:36:43.312Z,9.38
2017-04-16T07:37:41.113Z,9.45
2017-04-16T07:38:39.072Z,9.57
2017-04-16T07:39:36.935Z,9.22
2017-04-16T07:40:34.858Z,9.39
2017-04-16T07:41:32.760Z,9.44
2017-04-16T07:42:30.614Z,9.46
2017-04-16T07:43:28.496Z,9.56
2017-04-16T07:44:26.454Z,9.55
2017-04-16T07:45:24.380Z,9.47
2017-04-16T07:46:22.306Z,9.46
2017-04-16T07:47:20.167Z,9.53
2017-04-16T07:48:18.107Z,9.55
2017-04-16T07:49:18.670Z,9.42
2017-04-16T07:50:16.492Z,9.41
2017-04-16T07:51:14.350Z,9.49
2017-04-16T07:52:12.216Z,9.37
2017-04-16T08:11:28.852Z,9.45
2017-04-16T08:12:27.027Z,9.39
2017-04-16T08:13:24.869Z,9.53
2017-04-16T08:14:22.744Z,9.72
2017-04-16T08:15:20.718Z,9.75
2017-04-16T08:16:18.645Z,9.78
2017-04-16T08:17:16.552Z,9.80
2017-04-16T08:18:14.389Z,9.89
2017-04-16T08:19:12.273Z,9.66
2017-04-16T08:20:10.265Z,9.64
2017-04-16T08:21:08.216Z,9.75
2017-04-16T08:22:06.474Z,9.82
2017-04-16T08:23:04.326Z,9.74
2017-04-16T08:24:04.036Z,9.66
2017-04-16T08:25:02.099Z,9.64
2017-04-16T08:25:59.956Z,9.61
2017-04-16T08:26:57.865Z,9.64
2017-04-16T08:27:55.906Z,9.62
2017-04-16T08:28:53.769Z,9.80
2017-04-16T08:29:51.593Z,9.76
2017-04-16T08:30:50.275Z,9.69
2017-04-16T08:31:48.108Z,9.84
2017-04-16T08:32:45.976Z,9.87
2017-04-16T08:33:43.844Z,9.75
2017-04-16T08:34:41.713Z,9.64
2017-04-16T08:35:39.603Z,9.61
2017-04-16T08:36:37.516Z,9.71
2017-04-16T08:37:35.367Z,9.51
2017-04-16T08:38:34.037Z,9.38
2017-04-16T08:39:31.884Z,9.39
2017-04-16T08:40:29.818Z,9.40
2017-04-16T08:41:27.683Z,9.43
2017-04-16T08:42:25.546Z,9.46
2017-04-16T08:43:23.412Z,9.46
2017-04-16T08:44:21.252Z,9.37
2017-04-16T08:45:19.074Z,9.58
2017-04-16T08:46:16.952Z,9.66
2017-04-16T08:47:14.815Z,9.64
2017-04-16T08:48:12.788Z,9.51
2017-04-16T08:49:10.603Z,9.63
2017-04-16T08:50:08.468Z,9.60
2017-04-16T08:51:06.328Z,9.74
2017-04-16T08:52:04.199Z,9.81
2017-04-16T08:53:02.205Z,10.01
2017-04-16T08:54:00.041Z,9.89
2017-04-16T08:54:58.021Z,9.85
2017-04-16T08:55:55.864Z,9.84
2017-04-16T08:56:53.756Z,10.00
2017-04-16T08:57:51.588Z,10.30
2017-04-16T08:58:49.404Z,10.28
2017-04-16T08:59:47.330Z,10.20
2017-04-16T09:00:45.156Z,10.30
2017-04-16T09:01:43.084Z,9.79
2017-04-16T09:02:40.966Z,9.86
2017-04-16T09:03:38.786Z,10.04
2017-04-16T09:04:36.691Z,10.20
2017-04-16T09:05:34.548Z,10.29
2017-04-16T09:06:32.508Z,10.29
2017-04-16T09:07:30.388Z,10.19
2017-04-16T09:08:28.357Z,10.26
2017-04-16T09:09:26.228Z,10.34
2017-04-16T09:10:24.059Z,10.51
2017-04-16T09:11:21.906Z,10.71
2017-04-16T09:12:19.780Z,10.99
2017-04-16T09:13:17.721Z,10.93
2017-04-16T09:14:15.585Z,10.92
2017-04-16T09:15:13.491Z,10.78
2017-04-16T09:16:11.341Z,10.74
2017-04-16T09:17:09.200Z,10.75
2017-04-16T09:18:07.100Z,10.66
2017-04-16T09:19:04.928Z,10.77
2017-04-16T09:20:02.869Z,10.92
2017-04-16T09:21:00.671Z,10.82
2017-04-16T09:21:58.637Z,10.73
2017-04-16T09:22:56.481Z,10.64
2017-04-16T09:23:54.336Z,10.50
2017-04-16T09:24:52.402Z,10.61
2017-04-16T09:25:50.268Z,10.53
2017-04-16T09:26:48.124Z,10.62
2017-04-16T09:27:45.963Z,10.62
2017-04-16T09:28:43.838Z,10.68
2017-04-16T09:29:41.726Z,10.57
2017-04-16T09:30:39.578Z,10.40
2017-04-16T09:31:37.465Z,10.30
2017-04-16T09:32:35.282Z,10.40
2017-04-16T09:33:33.206Z,10.45
2017-04-16T09:34:31.039Z,10.44
2017-04-16T09:35:28.992Z,10.46
2017-04-16T09:36:26.817Z,10.45
2017-04-16T09:37:24.657Z,10.57
2017-04-16T09:38:22.667Z,10.57
2017-04-16T09:39:20.529Z,10.59
2017-04-16T09:40:18.381Z,10.68
2017-04-16T09:41:16.282Z,10.75
2017-04-16T09:42:14.240Z,10.88
2017-04-16T09:43:12.077Z,10.70
2017-04-16T09:44:09.877Z,10.74
2017-04-16T09:45:07.804Z,10.57
2017-04-16T09:46:05.681Z,10.77
2017-04-16T09:47:03.613Z,10.90
2017-04-16T09:48:01.512Z,11.15
2017-04-16T09:48:59.404Z,11.15
2017-04-16T09:49:57.204Z,10.94
2017-04-16T09:50:55.061Z,10.98
2017-04-16T09:51:52.932Z,10.95
2017-04-16T09:52:50.793Z,10.91
2017-04-16T09:53:48.719Z,10.93
2017-04-16T09:54:46.587Z,10.90
2017-04-16T09:55:44.507Z,11.18
2017-04-16T09:56:42.371Z,11.18
2017-04-16T09:57:40.240Z,11.37
2017-04-16T09:58:38.114Z,11.37
2017-04-16T09:59:35.950Z,11.53
2017-04-16T10:00:33.849Z,11.48
2017-04-16T10:01:31.688Z,11.29
2017-04-16T10:02:29.808Z,11.05
2017-04-16T10:03:27.651Z,11.24
2017-04-16T10:04:25.485Z,11.38
2017-04-16T10:05:23.399Z,11.41
2017-04-16T10:06:21.253Z,11.21
2017-04-16T10:07:19.137Z,11.21
2017-04-16T10:08:16.959Z,11.25
2017-04-16T10:09:15.065Z,11.23
2017-04-16T10:10:12.912Z,11.00
2017-04-16T10:11:10.743Z,11.27
2017-04-16T10:12:08.569Z,11.58
2017-04-16T10:13:06.427Z,11.75
2017-04-16T10:14:04.371Z,11.85
2017-04-16T10:15:02.196Z,11.87
2017-04-16T10:16:00.216Z,11.94
2017-04-16T10:16:58.089Z,12.08
2017-04-16T10:17:55.970Z,11.96
2017-04-16T10:18:53.836Z,11.92
2017-04-16T10:19:51.680Z,11.78
2017-04-16T10:20:49.559Z,11.75
2017-04-16T10:21:47.396Z,11.92
2017-04-16T10:22:45.324Z,11.88
2017-04-16T10:23:43.164Z,11.97
2017-04-16T10:24:40.987Z,11.93
2017-04-16T10:25:38.860Z,11.97
2017-04-16T10:26:36.695Z,12.14
2017-04-16T10:27:34.597Z,12.04
2017-04-16T10:28:32.443Z,12.19
2017-04-16T10:29:30.381Z,12.06
2017-04-16T10:30:28.244Z,12.09
2017-04-16T10:31:28.399Z,12.01
2017-04-16T10:32:26.382Z,12.02
2017-04-16T10:33:24.268Z,11.91
2017-04-16T10:34:22.222Z,11.80
2017-04-16T10:35:20.123Z,11.90
2017-04-16T10:36:17.949Z,11.87
2017-04-16T10:37:15.776Z,11.87
2017-04-16T10:38:13.625Z,11.89
2017-04-16T10:39:11.497Z,11.52
2017-04-16T10:40:09.324Z,11.50
2017-04-16T10:41:07.157Z,11.76
2017-04-16T10:42:05.030Z,11.95
2017-04-16T10:43:02.953Z,11.77
2017-04-16T10:44:00.803Z,11.21
2017-04-16T10:44:58.634Z,11.42
2017-04-16T10:45:56.501Z,11.64
2017-04-16T10:46:54.381Z,11.79
2017-04-16T10:47:52.250Z,11.81
2017-04-16T10:48:50.198Z,11.60
2017-04-16T10:49:48.029Z,11.63
2017-04-16T10:50:45.932Z,11.74
2017-04-16T10:51:44.576Z,11.65
2017-04-16T10:52:42.413Z,11.87
2017-04-16T10:53:40.248Z,12.03
2017-04-16T10:54:38.114Z,12.00
2017-04-16T10:55:36.052Z,11.96
2017-04-16T10:56:33.943Z,12.13
2017-04-16T10:57:32.131Z,12.18
2017-04-16T10:58:29.953Z,12.14
2017-04-16T10:59:27.779Z,12.07
2017-04-16T11:00:25.855Z,12.06
2017-04-16T11:01:23.691Z,12.26
2017-04-16T11:02:21.517Z,12.36
2017-04-16T11:03:19.716Z,12.33
2017-04-16T11:04:17.569Z,12.05
2017-04-16T11:05:15.539Z,12.19
2017-04-16T11:06:13.387Z,12.14
2017-04-16T11:07:11.312Z,12.50
2017-04-16T11:08:09.149Z,12.88
2017-04-16T11:09:07.149Z,12.91
2017-04-16T11:10:05.018Z,13.19
2017-04-16T11:11:02.869Z,13.15
2017-04-16T11:12:00.823Z,12.66
2017-04-16T11:12:58.668Z,13.08
2017-04-16T11:13:56.552Z,13.00
2017-04-16T11:14:54.388Z,13.18
2017-04-16T11:15:52.353Z,13.14
2017-04-16T11:16:50.203Z,13.26
2017-04-16T11:17:48.048Z,13.26
2017-04-16T11:18:45.920Z,13.00
2017-04-16T11:19:43.738Z,13.27
2017-04-16T11:20:41.704Z,13.35
2017-04-16T11:21:39.559Z,12.91
2017-04-16T11:22:37.484Z,13.16
2017-04-16T11:23:35.364Z,13.05
2017-04-16T11:24:33.213Z,13.34
2017-04-16T11:25:31.057Z,13.23
2017-04-16T11:26:28.883Z,13.05
2017-04-16T11:27:26.887Z,13.21
2017-04-16T11:28:24.740Z,13.36
2017-04-16T11:29:22.564Z,13.21
2017-04-16T11:30:20.485Z,13.15
2017-04-16T11:31:18.372Z,12.80
2017-04-16T11:32:16.305Z,12.02
2017-04-16T11:33:14.269Z,12.78
2017-04-16T11:34:12.116Z,12.72
2017-04-16T11:35:10.002Z,12.62
2017-04-16T11:36:07.836Z,12.18
2017-04-16T11:37:05.694Z,12.37
2017-04-16T11:38:03.555Z,12.42
2017-04-16T11:39:01.359Z,12.38
2017-04-16T11:39:59.241Z,12.19
2017-04-16T11:40:57.160Z,12.30
2017-04-16T11:41:55.021Z,11.55
2017-04-16T11:42:52.931Z,11.66
2017-04-16T11:43:50.764Z,11.63
2017-04-16T11:44:48.645Z,11.24
2017-04-16T11:45:46.546Z,11.41
2017-04-16T11:46:44.384Z,11.71
2017-04-16T11:47:42.209Z,11.01
2017-04-16T11:48:40.013Z,11.21
2017-04-16T11:49:37.864Z,11.64
2017-04-16T11:50:35.707Z,10.47
2017-04-16T11:51:33.562Z,10.54
2017-04-16T11:52:31.556Z,10.45
2017-04-16T11:53:29.399Z,10.87
2017-04-16T11:54:27.377Z,11.14
2017-04-16T11:55:25.265Z,10.50
2017-04-16T11:56:23.261Z,10.31
2017-04-16T11:57:21.205Z,10.73
2017-04-16T11:58:19.070Z,10.43
2017-04-16T11:59:16.940Z,10.83
2017-04-16T12:00:14.958Z,10.86
2017-04-16T12:01:12.784Z,10.44
2017-04-16T12:02:10.634Z,9.95
2017-04-16T12:03:08.482Z,9.91
2017-04-16T12:04:06.348Z,10.93
2017-04-16T12:05:04.175Z,10.67
2017-04-16T12:06:01.998Z,10.95
2017-04-16T12:06:59.853Z,10.83
2017-04-16T12:07:57.744Z,10.01
2017-04-16T12:08:55.570Z,10.53
2017-04-16T12:09:53.420Z,9.33
2017-04-16T12:10:51.349Z,10.10
2017-04-16T12:11:49.228Z,10.20
2017-04-16T12:12:47.080Z,10.78
2017-04-16T12:13:44.918Z,10.89
2017-04-16T12:14:42.791Z,10.41
2017-04-16T12:15:40.707Z,10.62
2017-04-16T12:16:38.548Z,10.14
2017-04-16T12:17:36.457Z,10.23
2017-04-16T12:18:34.371Z,10.12
2017-04-16T12:19:32.241Z,10.43
2017-04-16T12:20:30.096Z,10.56
2017-04-16T12:21:27.994Z,10.71
2017-04-16T12:22:25.830Z,10.52
2017-04-16T12:23:23.801Z,10.62
2017-04-16T12:24:21.744Z,10.68
2017-04-16T12:25:19.576Z,10.63
2017-04-16T12:26:17.412Z,10.70
2017-04-16T12:27:15.290Z,10.54
2017-04-16T12:28:13.244Z,10.71
2017-04-16T12:29:11.106Z,10.78
2017-04-16T12:30:09.001Z,10.77
2017-04-16T12:31:06.934Z,10.81
2017-04-16T12:32:04.821Z,10.66
2017-04-16T12:33:02.878Z,10.72
2017-04-16T12:34:00.854Z,9.92
2017-04-16T12:34:58.850Z,10.15
2017-04-16T12:35:56.754Z,10.38
2017-04-16T12:36:54.628Z,10.48
2017-04-16T12:37:52.479Z,10.65
2017-04-16T12:38:50.327Z,10.27
2017-04-16T12:39:48.206Z,10.44
2017-04-16T12:40:46.069Z,10.21
2017-04-16T12:41:44.832Z,10.59
2017-04-16T12:42:42.720Z,10.81
2017-04-16T12:43:40.709Z,10.85
2017-04-16T12:44:39.081Z,10.66
2017-04-16T12:45:36.965Z,10.58
2017-04-16T12:46:34.856Z,10.11
2017-04-16T12:47:32.727Z,10.61
2017-04-16T12:48:30.621Z,10.73
2017-04-16T12:49:28.509Z,10.51
2017-04-16T12:50:27.617Z,10.71
2017-04-16T12:51:25.570Z,10.51
2017-04-16T12:52:23.424Z,10.79
2017-04-16T12:53:21.325Z,10.79
2017-04-16T12:54:19.200Z,10.43
2017-04-16T12:55:17.121Z,10.65
2017-04-16T12:56:14.979Z,10.80
2017-04-16T12:57:12.877Z,10.87
2017-04-16T12:58:10.796Z,10.33
2017-04-16T12:59:08.632Z,10.15
2017-04-16T13:00:06.547Z,10.21
2017-04-16T13:01:04.384Z,10.45
2017-04-16T13:02:02.296Z,10.57
2017-04-16T13:03:00.167Z,10.74
2017-04-16T13:03:58.045Z,10.81